sensor_id;sensor_type;location;lat;lon;timestamp;temperature;humidity
4054;DHT22;2042;47.956;9.222;2022-11-20T00:00:52;-0.70;1.00
4054;DHT22;2042;47.956;9.222;2022-11-20T00:03:18;-0.50;1.00
4054;DHT22;2042;47.956;9.222;2022-11-20T00:05:44;-0.40;1.00
4054;DHT22;2042;47.956;9.222;2022-11-20T00:08:10;-0.30;1.00
4054;DHT22;2042;47.956;9.222;2022-11-20T00:10:37;-0.30;1.00
4054;DHT22;2042;47.956;9.222;2022-11-20T00:13:03;-0.20;1.00
4054;DHT22;2042;47.956;9.222;2022-11-20T00:15:29;-0.20;1.00
4054;DHT22;2042;47.956;9.222;2022-11-20T00:17:54;-0.20;1.00
4054;DHT22;2042;47.956;9.222;2022-11-20T00:20:20;-0.10;1.00
4054;DHT22;2042;47.956;9.222;2022-11-20T00:22:45;0.00;1.00
4054;DHT22;2042;47.956;9.222;2022-11-20T00:25:11;0.00;1.00
4054;DHT22;2042;47.956;9.222;2022-11-20T00:27:37;0.00;1.00
4054;DHT22;2042;47.956;9.222;2022-11-20T00:30:04;-0.10;1.00
4054;DHT22;2042;47.956;9.222;2022-11-20T00:32:30;-0.20;1.00
4054;DHT22;2042;47.956;9.222;2022-11-20T00:34:55;-0.10;1.00
4054;DHT22;2042;47.956;9.222;2022-11-20T00:37:21;0.20;4.40
4054;DHT22;2042;47.956;9.222;2022-11-20T00:39:47;0.50;5.50
4054;DHT22;2042;47.956;9.222;2022-11-20T00:42:13;0.60;5.30
4054;DHT22;2042;47.956;9.222;2022-11-20T00:44:38;0.80;6.30
4054;DHT22;2042;47.956;9.222;2022-11-20T00:47:04;1.00;7.10
4054;DHT22;2042;47.956;9.222;2022-11-20T00:49:30;1.10;7.20
4054;DHT22;2042;47.956;9.222;2022-11-20T00:51:56;1.20;7.20
4054;DHT22;2042;47.956;9.222;2022-11-20T00:54:21;1.30;7.30
4054;DHT22;2042;47.956;9.222;2022-11-20T00:56:47;1.30;7.00
4054;DHT22;2042;47.956;9.222;2022-11-20T00:59:12;1.30;6.40
4054;DHT22;2042;47.956;9.222;2022-11-20T01:01:38;1.20;5.60
4054;DHT22;2042;47.956;9.222;2022-11-20T01:04:04;1.20;4.90
4054;DHT22;2042;47.956;9.222;2022-11-20T01:06:34;1.10;4.50
4054;DHT22;2042;47.956;9.222;2022-11-20T01:09:05;1.00;4.30
4054;DHT22;2042;47.956;9.222;2022-11-20T01:11:36;1.10;5.60
4054;DHT22;2042;47.956;9.222;2022-11-20T01:14:03;1.10;6.20
4054;DHT22;2042;47.956;9.222;2022-11-20T01:16:32;1.20;6.90
4054;DHT22;2042;47.956;9.222;2022-11-20T01:19:00;1.20;6.60
4054;DHT22;2042;47.956;9.222;2022-11-20T01:21:27;1.20;6.00
4054;DHT22;2042;47.956;9.222;2022-11-20T01:23:53;1.10;5.50
4054;DHT22;2042;47.956;9.222;2022-11-20T01:26:22;1.10;5.50
4054;DHT22;2042;47.956;9.222;2022-11-20T01:28:49;1.00;5.30
4054;DHT22;2042;47.956;9.222;2022-11-20T01:31:23;1.00;5.70
4054;DHT22;2042;47.956;9.222;2022-11-20T01:33:52;1.10;7.00
4054;DHT22;2042;47.956;9.222;2022-11-20T01:36:19;1.20;8.00
4054;DHT22;2042;47.956;9.222;2022-11-20T01:38:45;1.30;8.30
4054;DHT22;2042;47.956;9.222;2022-11-20T01:41:12;1.40;8.90
4054;DHT22;2042;47.956;9.222;2022-11-20T01:44:03;1.50;9.00
4054;DHT22;2042;47.956;9.222;2022-11-20T01:46:29;1.60;9.30
4054;DHT22;2042;47.956;9.222;2022-11-20T01:49:10;1.60;9.60
4054;DHT22;2042;47.956;9.222;2022-11-20T01:51:44;1.70;10.00
4054;DHT22;2042;47.956;9.222;2022-11-20T01:54:28;1.80;10.30
4054;DHT22;2042;47.956;9.222;2022-11-20T01:56:57;1.80;10.40
4054;DHT22;2042;47.956;9.222;2022-11-20T01:59:26;1.90;10.90
4054;DHT22;2042;47.956;9.222;2022-11-20T02:01:53;2.00;11.30
4054;DHT22;2042;47.956;9.222;2022-11-20T02:04:20;2.10;11.70
4054;DHT22;2042;47.956;9.222;2022-11-20T02:06:53;2.10;11.80
4054;DHT22;2042;47.956;9.222;2022-11-20T02:09:20;2.20;12.10
4054;DHT22;2042;47.956;9.222;2022-11-20T02:11:46;2.30;12.30
4054;DHT22;2042;47.956;9.222;2022-11-20T02:14:12;2.30;12.40
4054;DHT22;2042;47.956;9.222;2022-11-20T02:16:49;2.30;12.40
4054;DHT22;2042;47.956;9.222;2022-11-20T02:19:27;2.30;12.40
4054;DHT22;2042;47.956;9.222;2022-11-20T02:24:27;2.40;12.60
4054;DHT22;2042;47.956;9.222;2022-11-20T02:32:30;2.50;12.60
4054;DHT22;2042;47.956;9.222;2022-11-20T02:34:56;2.50;12.60
4054;DHT22;2042;47.956;9.222;2022-11-20T02:37:23;2.50;12.70
4054;DHT22;2042;47.956;9.222;2022-11-20T02:39:52;2.50;20.00
4054;DHT22;2042;47.956;9.222;2022-11-20T02:42:18;2.60;13.00
4054;DHT22;2042;47.956;9.222;2022-11-20T02:44:44;2.60;12.90
4054;DHT22;2042;47.956;9.222;2022-11-20T02:47:10;2.60;13.00
4054;DHT22;2042;47.956;9.222;2022-11-20T02:49:35;2.60;13.00
4054;DHT22;2042;47.956;9.222;2022-11-20T02:52:01;2.60;13.00
4054;DHT22;2042;47.956;9.222;2022-11-20T02:54:27;2.60;13.00
4054;DHT22;2042;47.956;9.222;2022-11-20T02:56:53;2.60;12.90
4054;DHT22;2042;47.956;9.222;2022-11-20T02:59:18;2.60;12.90
4054;DHT22;2042;47.956;9.222;2022-11-20T03:01:44;2.50;12.80
4054;DHT22;2042;47.956;9.222;2022-11-20T03:04:10;2.50;12.80
4054;DHT22;2042;47.956;9.222;2022-11-20T03:06:35;2.40;12.70
4054;DHT22;2042;47.956;9.222;2022-11-20T03:09:01;2.40;12.80
4054;DHT22;2042;47.956;9.222;2022-11-20T03:11:27;2.50;13.10
4054;DHT22;2042;47.956;9.222;2022-11-20T03:13:53;2.50;13.20
4054;DHT22;2042;47.956;9.222;2022-11-20T03:16:21;2.50;13.30
4054;DHT22;2042;47.956;9.222;2022-11-20T03:18:47;2.60;13.50
4054;DHT22;2042;47.956;9.222;2022-11-20T03:21:14;2.60;13.50
4054;DHT22;2042;47.956;9.222;2022-11-20T03:23:40;2.60;13.60
4054;DHT22;2042;47.956;9.222;2022-11-20T03:28:42;2.60;13.70
4054;DHT22;2042;47.956;9.222;2022-11-20T03:31:13;2.60;13.70
4054;DHT22;2042;47.956;9.222;2022-11-20T03:33:40;2.70;13.70
4054;DHT22;2042;47.956;9.222;2022-11-20T03:36:08;2.60;13.60
4054;DHT22;2042;47.956;9.222;2022-11-20T03:38:38;2.60;13.70
4054;DHT22;2042;47.956;9.222;2022-11-20T03:41:09;2.60;13.60
4054;DHT22;2042;47.956;9.222;2022-11-20T03:43:35;2.60;13.70
4054;DHT22;2042;47.956;9.222;2022-11-20T03:46:01;2.60;13.60
4054;DHT22;2042;47.956;9.222;2022-11-20T03:48:27;2.50;13.60
4054;DHT22;2042;47.956;9.222;2022-11-20T03:53:34;2.50;13.70
4054;DHT22;2042;47.956;9.222;2022-11-20T03:56:00;2.50;13.70
4054;DHT22;2042;47.956;9.222;2022-11-20T03:58:25;2.50;13.70
4054;DHT22;2042;47.956;9.222;2022-11-20T04:00:51;2.50;13.90
4054;DHT22;2042;47.956;9.222;2022-11-20T04:03:17;2.50;13.80
4054;DHT22;2042;47.956;9.222;2022-11-20T04:05:42;2.60;13.90
4054;DHT22;2042;47.956;9.222;2022-11-20T04:08:09;2.60;13.90
4054;DHT22;2042;47.956;9.222;2022-11-20T04:10:34;2.60;13.90
4054;DHT22;2042;47.956;9.222;2022-11-20T04:13:00;2.50;13.80
4054;DHT22;2042;47.956;9.222;2022-11-20T04:15:26;2.50;13.70
4054;DHT22;2042;47.956;9.222;2022-11-20T04:17:51;2.40;13.50
4054;DHT22;2042;47.956;9.222;2022-11-20T04:20:17;2.40;13.50
4054;DHT22;2042;47.956;9.222;2022-11-20T04:22:42;2.30;13.50
4054;DHT22;2042;47.956;9.222;2022-11-20T04:25:08;2.30;13.50
4054;DHT22;2042;47.956;9.222;2022-11-20T04:27:34;2.30;13.50
4054;DHT22;2042;47.956;9.222;2022-11-20T04:30:00;2.30;13.60
4054;DHT22;2042;47.956;9.222;2022-11-20T04:32:25;2.30;13.70
4054;DHT22;2042;47.956;9.222;2022-11-20T04:34:51;2.40;13.90
4054;DHT22;2042;47.956;9.222;2022-11-20T04:37:18;2.40;14.00
4054;DHT22;2042;47.956;9.222;2022-11-20T04:39:44;2.50;14.10
4054;DHT22;2042;47.956;9.222;2022-11-20T04:42:10;2.50;14.10
4054;DHT22;2042;47.956;9.222;2022-11-20T04:44:54;2.50;15.30
4054;DHT22;2042;47.956;9.222;2022-11-20T04:47:20;2.50;15.30
4054;DHT22;2042;47.956;9.222;2022-11-20T04:49:46;2.40;15.30
4054;DHT22;2042;47.956;9.222;2022-11-20T04:52:12;2.50;15.90
4054;DHT22;2042;47.956;9.222;2022-11-20T04:54:38;2.50;16.00
4054;DHT22;2042;47.956;9.222;2022-11-20T04:57:04;2.60;15.60
4054;DHT22;2042;47.956;9.222;2022-11-20T04:59:29;2.60;15.70
4054;DHT22;2042;47.956;9.222;2022-11-20T05:01:55;2.60;15.70
4054;DHT22;2042;47.956;9.222;2022-11-20T05:04:21;2.60;15.70
4054;DHT22;2042;47.956;9.222;2022-11-20T05:06:46;2.60;15.70
4054;DHT22;2042;47.956;9.222;2022-11-20T05:09:12;2.60;15.70
4054;DHT22;2042;47.956;9.222;2022-11-20T05:11:38;2.70;15.80
4054;DHT22;2042;47.956;9.222;2022-11-20T05:14:04;2.70;15.90
4054;DHT22;2042;47.956;9.222;2022-11-20T05:16:29;2.70;15.80
4054;DHT22;2042;47.956;9.222;2022-11-20T05:18:56;2.70;15.80
4054;DHT22;2042;47.956;9.222;2022-11-20T05:21:22;2.60;15.70
4054;DHT22;2042;47.956;9.222;2022-11-20T05:23:48;2.50;15.50
4054;DHT22;2042;47.956;9.222;2022-11-20T05:26:19;2.50;15.40
4054;DHT22;2042;47.956;9.222;2022-11-20T05:28:46;2.40;15.30
4054;DHT22;2042;47.956;9.222;2022-11-20T05:31:15;2.30;15.10
4054;DHT22;2042;47.956;9.222;2022-11-20T05:33:43;2.20;14.90
4054;DHT22;2042;47.956;9.222;2022-11-20T05:36:09;2.10;14.80
4054;DHT22;2042;47.956;9.222;2022-11-20T05:38:35;2.10;14.90
4054;DHT22;2042;47.956;9.222;2022-11-20T05:41:12;2.00;14.80
4054;DHT22;2042;47.956;9.222;2022-11-20T05:43:39;2.00;14.70
4054;DHT22;2042;47.956;9.222;2022-11-20T05:46:07;1.90;14.50
4054;DHT22;2042;47.956;9.222;2022-11-20T05:48:34;1.90;14.50
4054;DHT22;2042;47.956;9.222;2022-11-20T05:51:01;1.80;14.50
4054;DHT22;2042;47.956;9.222;2022-11-20T05:53:28;1.80;14.70
4054;DHT22;2042;47.956;9.222;2022-11-20T05:56:00;1.80;15.00
4054;DHT22;2042;47.956;9.222;2022-11-20T05:58:27;1.80;14.90
4054;DHT22;2042;47.956;9.222;2022-11-20T06:00:53;1.80;15.00
4054;DHT22;2042;47.956;9.222;2022-11-20T06:03:19;1.80;14.90
4054;DHT22;2042;47.956;9.222;2022-11-20T06:05:45;1.80;14.90
4054;DHT22;2042;47.956;9.222;2022-11-20T06:08:10;1.90;15.20
4054;DHT22;2042;47.956;9.222;2022-11-20T06:10:36;2.00;15.40
4054;DHT22;2042;47.956;9.222;2022-11-20T06:13:01;2.00;15.40
4054;DHT22;2042;47.956;9.222;2022-11-20T06:15:27;2.10;15.50
4054;DHT22;2042;47.956;9.222;2022-11-20T06:17:54;2.10;15.70
4054;DHT22;2042;47.956;9.222;2022-11-20T06:20:21;2.20;15.80
4054;DHT22;2042;47.956;9.222;2022-11-20T06:22:47;2.30;15.90
4054;DHT22;2042;47.956;9.222;2022-11-20T06:25:13;2.30;15.90
4054;DHT22;2042;47.956;9.222;2022-11-20T06:27:39;2.40;16.00
4054;DHT22;2042;47.956;9.222;2022-11-20T06:30:05;2.30;15.90
4054;DHT22;2042;47.956;9.222;2022-11-20T06:32:30;2.30;15.90
4054;DHT22;2042;47.956;9.222;2022-11-20T06:34:56;2.30;15.80
4054;DHT22;2042;47.956;9.222;2022-11-20T06:37:22;2.20;15.60
4054;DHT22;2042;47.956;9.222;2022-11-20T06:39:48;2.10;15.50
4054;DHT22;2042;47.956;9.222;2022-11-20T06:42:14;2.10;15.50
4054;DHT22;2042;47.956;9.222;2022-11-20T06:44:39;2.10;15.50
4054;DHT22;2042;47.956;9.222;2022-11-20T06:47:05;2.10;15.50
4054;DHT22;2042;47.956;9.222;2022-11-20T06:49:31;2.10;15.50
4054;DHT22;2042;47.956;9.222;2022-11-20T06:51:57;2.10;15.50
4054;DHT22;2042;47.956;9.222;2022-11-20T06:54:22;2.00;15.40
4054;DHT22;2042;47.956;9.222;2022-11-20T06:56:48;2.10;15.60
4054;DHT22;2042;47.956;9.222;2022-11-20T06:59:14;2.20;15.80
4054;DHT22;2042;47.956;9.222;2022-11-20T07:01:39;2.30;16.10
4054;DHT22;2042;47.956;9.222;2022-11-20T07:04:05;2.50;16.20
4054;DHT22;2042;47.956;9.222;2022-11-20T07:06:31;2.60;16.30
4054;DHT22;2042;47.956;9.222;2022-11-20T07:08:57;2.70;16.40
4054;DHT22;2042;47.956;9.222;2022-11-20T07:11:23;2.80;16.50
4054;DHT22;2042;47.956;9.222;2022-11-20T07:13:49;2.90;16.60
4054;DHT22;2042;47.956;9.222;2022-11-20T07:16:15;3.00;16.60
4054;DHT22;2042;47.956;9.222;2022-11-20T07:18:40;3.00;16.60
4054;DHT22;2042;47.956;9.222;2022-11-20T07:21:08;3.10;16.70
4054;DHT22;2042;47.956;9.222;2022-11-20T07:23:35;3.10;16.70
4054;DHT22;2042;47.956;9.222;2022-11-20T07:26:09;3.10;16.70
4054;DHT22;2042;47.956;9.222;2022-11-20T07:28:35;3.10;16.70
4054;DHT22;2042;47.956;9.222;2022-11-20T07:31:02;3.10;16.80
4054;DHT22;2042;47.956;9.222;2022-11-20T07:33:28;3.20;16.80
4054;DHT22;2042;47.956;9.222;2022-11-20T07:35:53;3.30;16.90
4054;DHT22;2042;47.956;9.222;2022-11-20T07:38:19;3.40;17.00
4054;DHT22;2042;47.956;9.222;2022-11-20T07:40:45;3.40;17.10
4054;DHT22;2042;47.956;9.222;2022-11-20T07:43:10;3.50;17.10
4054;DHT22;2042;47.956;9.222;2022-11-20T07:45:36;3.60;17.30
4054;DHT22;2042;47.956;9.222;2022-11-20T07:48:02;3.80;17.40
4054;DHT22;2042;47.956;9.222;2022-11-20T07:50:27;4.00;17.60
4054;DHT22;2042;47.956;9.222;2022-11-20T07:53:00;4.40;17.80
4054;DHT22;2042;47.956;9.222;2022-11-20T07:55:26;4.70;18.40
4054;DHT22;2042;47.956;9.222;2022-11-20T07:57:55;4.70;17.80
4054;DHT22;2042;47.956;9.222;2022-11-20T08:00:22;4.30;15.80
4054;DHT22;2042;47.956;9.222;2022-11-20T08:02:47;4.00;14.50
4054;DHT22;2042;47.956;9.222;2022-11-20T08:05:14;3.90;14.40
4054;DHT22;2042;47.956;9.222;2022-11-20T08:07:43;4.60;60.90
4054;DHT22;2042;47.956;9.222;2022-11-20T08:10:11;4.70;58.80
4054;DHT22;2042;47.956;9.222;2022-11-20T08:12:46;5.70;16.60
4054;DHT22;2042;47.956;9.222;2022-11-20T08:15:30;6.90;10.40
4054;DHT22;2042;47.956;9.222;2022-11-20T08:18:01;8.50;1.00
4054;DHT22;2042;47.956;9.222;2022-11-20T08:20:27;9.70;1.00
4054;DHT22;2042;47.956;9.222;2022-11-20T08:22:57;10.60;1.00
4054;DHT22;2042;47.956;9.222;2022-11-20T08:25:24;11.10;1.00
4054;DHT22;2042;47.956;9.222;2022-11-20T08:27:49;10.30;1.00
4054;DHT22;2042;47.956;9.222;2022-11-20T08:30:15;7.80;1.00
4054;DHT22;2042;47.956;9.222;2022-11-20T08:42:27;6.80;1.00
4054;DHT22;2042;47.956;9.222;2022-11-20T08:44:52;6.80;1.00
4054;DHT22;2042;47.956;9.222;2022-11-20T08:47:18;7.30;1.00
4054;DHT22;2042;47.956;9.222;2022-11-20T08:49:43;7.40;1.00
4054;DHT22;2042;47.956;9.222;2022-11-20T08:52:09;7.10;1.00
4054;DHT22;2042;47.956;9.222;2022-11-20T08:54:35;7.00;1.00
4054;DHT22;2042;47.956;9.222;2022-11-20T08:59:29;7.00;1.00
4054;DHT22;2042;47.956;9.222;2022-11-20T09:01:56;7.30;1.00
4054;DHT22;2042;47.956;9.222;2022-11-20T09:04:21;7.80;1.00
4054;DHT22;2042;47.956;9.222;2022-11-20T09:06:47;8.40;1.00
4054;DHT22;2042;47.956;9.222;2022-11-20T09:09:16;9.70;1.00
4054;DHT22;2042;47.956;9.222;2022-11-20T09:11:42;11.90;1.00
4054;DHT22;2042;47.956;9.222;2022-11-20T09:14:08;14.10;1.00
4054;DHT22;2042;47.956;9.222;2022-11-20T09:16:34;14.50;1.00
4054;DHT22;2042;47.956;9.222;2022-11-20T09:18:59;14.00;1.00
4054;DHT22;2042;47.956;9.222;2022-11-20T09:21:25;13.30;1.00
4054;DHT22;2042;47.956;9.222;2022-11-20T09:23:51;12.70;1.00
4054;DHT22;2042;47.956;9.222;2022-11-20T09:26:16;11.70;1.00
4054;DHT22;2042;47.956;9.222;2022-11-20T09:28:42;10.40;1.00
4054;DHT22;2042;47.956;9.222;2022-11-20T09:31:09;9.40;1.00
4054;DHT22;2042;47.956;9.222;2022-11-20T09:33:39;8.70;1.00
4054;DHT22;2042;47.956;9.222;2022-11-20T09:36:05;8.30;1.00
4054;DHT22;2042;47.956;9.222;2022-11-20T09:38:30;8.20;1.00
4054;DHT22;2042;47.956;9.222;2022-11-20T09:41:05;7.80;1.00
4054;DHT22;2042;47.956;9.222;2022-11-20T09:46:48;7.10;1.00
4054;DHT22;2042;47.956;9.222;2022-11-20T09:51:59;7.60;1.00
4054;DHT22;2042;47.956;9.222;2022-11-20T09:54:32;8.10;1.00
4054;DHT22;2042;47.956;9.222;2022-11-20T09:57:35;8.30;1.00
4054;DHT22;2042;47.956;9.222;2022-11-20T09:59:57;8.40;1.00
4054;DHT22;2042;47.956;9.222;2022-11-20T10:05:09;8.70;1.00
4054;DHT22;2042;47.956;9.222;2022-11-20T10:10:46;8.50;1.00
4054;DHT22;2042;47.956;9.222;2022-11-20T10:13:49;8.30;1.00
4054;DHT22;2042;47.956;9.222;2022-11-20T10:21:48;7.20;1.00
4054;DHT22;2042;47.956;9.222;2022-11-20T10:29:32;6.50;1.00
4054;DHT22;2042;47.956;9.222;2022-11-20T10:32:07;6.50;1.00
4054;DHT22;2042;47.956;9.222;2022-11-20T10:37:25;6.50;1.00
4054;DHT22;2042;47.956;9.222;2022-11-20T10:42:47;6.40;1.00
4054;DHT22;2042;47.956;9.222;2022-11-20T10:48:07;6.40;1.00
4054;DHT22;2042;47.956;9.222;2022-11-20T10:50:37;6.40;1.00
4054;DHT22;2042;47.956;9.222;2022-11-20T10:55:48;6.80;1.00
4054;DHT22;2042;47.956;9.222;2022-11-20T11:01:14;7.30;1.00
4054;DHT22;2042;47.956;9.222;2022-11-20T11:03:41;7.50;1.00
4054;DHT22;2042;47.956;9.222;2022-11-20T11:06:15;7.60;1.00
4054;DHT22;2042;47.956;9.222;2022-11-20T11:08:43;7.60;1.00
4054;DHT22;2042;47.956;9.222;2022-11-20T11:11:24;7.70;1.00
4054;DHT22;2042;47.956;9.222;2022-11-20T11:13:50;7.80;1.00
4054;DHT22;2042;47.956;9.222;2022-11-20T11:16:25;7.90;1.00
4054;DHT22;2042;47.956;9.222;2022-11-20T11:18:51;8.00;1.00
4054;DHT22;2042;47.956;9.222;2022-11-20T11:21:24;8.20;1.00
4054;DHT22;2042;47.956;9.222;2022-11-20T11:24:01;8.20;1.00
4054;DHT22;2042;47.956;9.222;2022-11-20T11:26:27;8.00;1.00
4054;DHT22;2042;47.956;9.222;2022-11-20T11:29:01;7.90;1.00
4054;DHT22;2042;47.956;9.222;2022-11-20T11:31:34;7.70;1.00
4054;DHT22;2042;47.956;9.222;2022-11-20T11:34:16;7.40;1.00
4054;DHT22;2042;47.956;9.222;2022-11-20T11:36:55;7.20;1.00
4054;DHT22;2042;47.956;9.222;2022-11-20T11:39:21;7.00;1.00
4054;DHT22;2042;47.956;9.222;2022-11-20T11:41:47;6.80;1.00
4054;DHT22;2042;47.956;9.222;2022-11-20T11:44:18;6.70;1.00
4054;DHT22;2042;47.956;9.222;2022-11-20T11:47:04;6.60;1.00
4054;DHT22;2042;47.956;9.222;2022-11-20T11:49:30;6.50;1.00
4054;DHT22;2042;47.956;9.222;2022-11-20T11:52:08;6.50;1.00
4054;DHT22;2042;47.956;9.222;2022-11-20T11:54:55;6.60;1.00
4054;DHT22;2042;47.956;9.222;2022-11-20T11:57:29;6.70;1.00
4054;DHT22;2042;47.956;9.222;2022-11-20T12:05:26;7.20;1.00
4054;DHT22;2042;47.956;9.222;2022-11-20T12:10:56;7.10;1.00
4054;DHT22;2042;47.956;9.222;2022-11-20T12:13:36;7.10;1.00
4054;DHT22;2042;47.956;9.222;2022-11-20T12:16:09;7.00;1.00
4054;DHT22;2042;47.956;9.222;2022-11-20T12:18:36;6.90;1.00
4054;DHT22;2042;47.956;9.222;2022-11-20T12:24:42;6.80;1.00
4054;DHT22;2042;47.956;9.222;2022-11-20T12:37:47;7.80;1.00
4054;DHT22;2042;47.956;9.222;2022-11-20T12:43:19;7.90;1.00
4054;DHT22;2042;47.956;9.222;2022-11-20T12:48:38;8.00;1.00
4054;DHT22;2042;47.956;9.222;2022-11-20T12:51:15;8.10;1.00
4054;DHT22;2042;47.956;9.222;2022-11-20T13:02:34;7.90;1.00
4054;DHT22;2042;47.956;9.222;2022-11-20T13:05:20;7.80;1.00
4054;DHT22;2042;47.956;9.222;2022-11-20T13:07:48;7.60;1.00
4054;DHT22;2042;47.956;9.222;2022-11-20T13:10:26;7.40;1.00
4054;DHT22;2042;47.956;9.222;2022-11-20T13:13:03;7.40;1.00
4054;DHT22;2042;47.956;9.222;2022-11-20T13:15:43;7.50;1.00
4054;DHT22;2042;47.956;9.222;2022-11-20T13:18:11;7.60;1.00
4054;DHT22;2042;47.956;9.222;2022-11-20T13:20:46;7.60;1.00
4054;DHT22;2042;47.956;9.222;2022-11-20T13:23:26;7.50;1.00
4054;DHT22;2042;47.956;9.222;2022-11-20T13:26:16;7.40;1.00
4054;DHT22;2042;47.956;9.222;2022-11-20T13:28:42;7.50;1.00
4054;DHT22;2042;47.956;9.222;2022-11-20T13:31:33;7.70;1.00
4054;DHT22;2042;47.956;9.222;2022-11-20T13:34:03;7.70;1.00
4054;DHT22;2042;47.956;9.222;2022-11-20T13:36:30;7.70;1.00
4054;DHT22;2042;47.956;9.222;2022-11-20T13:38:57;7.60;1.00
4054;DHT22;2042;47.956;9.222;2022-11-20T13:41:29;7.50;1.00
4054;DHT22;2042;47.956;9.222;2022-11-20T13:44:22;7.50;1.00
4054;DHT22;2042;47.956;9.222;2022-11-20T13:46:49;7.50;1.00
4054;DHT22;2042;47.956;9.222;2022-11-20T13:49:23;7.50;1.00
4054;DHT22;2042;47.956;9.222;2022-11-20T13:51:54;7.50;1.00
4054;DHT22;2042;47.956;9.222;2022-11-20T13:59:49;7.10;1.00
4054;DHT22;2042;47.956;9.222;2022-11-20T14:02:19;6.90;1.00
4054;DHT22;2042;47.956;9.222;2022-11-20T14:04:57;6.80;1.00
4054;DHT22;2042;47.956;9.222;2022-11-20T14:07:27;6.80;1.00
4054;DHT22;2042;47.956;9.222;2022-11-20T14:09:57;6.70;1.00
4054;DHT22;2042;47.956;9.222;2022-11-20T14:12:29;6.60;1.00
4054;DHT22;2042;47.956;9.222;2022-11-20T14:14:55;6.50;1.00
4054;DHT22;2042;47.956;9.222;2022-11-20T14:19:55;6.30;1.00
4054;DHT22;2042;47.956;9.222;2022-11-20T14:22:25;6.20;1.00
4054;DHT22;2042;47.956;9.222;2022-11-20T14:27:35;6.10;1.00
4054;DHT22;2042;47.956;9.222;2022-11-20T14:30:02;6.10;1.00
4054;DHT22;2042;47.956;9.222;2022-11-20T14:32:29;6.10;1.00
4054;DHT22;2042;47.956;9.222;2022-11-20T14:35:01;6.00;1.00
4054;DHT22;2042;47.956;9.222;2022-11-20T14:37:31;6.00;1.00
4054;DHT22;2042;47.956;9.222;2022-11-20T14:39:58;6.00;1.00
4054;DHT22;2042;47.956;9.222;2022-11-20T14:42:27;6.00;1.00
4054;DHT22;2042;47.956;9.222;2022-11-20T14:44:58;5.90;1.00
4054;DHT22;2042;47.956;9.222;2022-11-20T14:47:30;5.90;1.00
4054;DHT22;2042;47.956;9.222;2022-11-20T14:49:57;5.90;1.00
4054;DHT22;2042;47.956;9.222;2022-11-20T14:52:26;5.80;1.00
4054;DHT22;2042;47.956;9.222;2022-11-20T14:54:54;5.80;1.00
4054;DHT22;2042;47.956;9.222;2022-11-20T14:57:35;5.80;1.00
4054;DHT22;2042;47.956;9.222;2022-11-20T15:02:42;5.80;1.00
4054;DHT22;2042;47.956;9.222;2022-11-20T15:05:08;5.70;1.00
4054;DHT22;2042;47.956;9.222;2022-11-20T15:07:37;5.60;1.00
4054;DHT22;2042;47.956;9.222;2022-11-20T15:10:04;5.50;1.00
4054;DHT22;2042;47.956;9.222;2022-11-20T15:12:32;5.50;1.00
4054;DHT22;2042;47.956;9.222;2022-11-20T15:14:59;5.50;1.00
4054;DHT22;2042;47.956;9.222;2022-11-20T15:19:52;5.40;1.00
4054;DHT22;2042;47.956;9.222;2022-11-20T15:22:19;5.30;1.00
4054;DHT22;2042;47.956;9.222;2022-11-20T15:24:45;5.20;1.00
4054;DHT22;2042;47.956;9.222;2022-11-20T15:27:11;5.10;1.00
4054;DHT22;2042;47.956;9.222;2022-11-20T15:29:37;5.00;1.00
4054;DHT22;2042;47.956;9.222;2022-11-20T15:32:03;4.80;1.00
4054;DHT22;2042;47.956;9.222;2022-11-20T15:34:28;4.70;1.00
4054;DHT22;2042;47.956;9.222;2022-11-20T15:36:54;4.60;1.00
4054;DHT22;2042;47.956;9.222;2022-11-20T15:39:20;4.60;1.00
4054;DHT22;2042;47.956;9.222;2022-11-20T15:41:46;4.50;1.00
4054;DHT22;2042;47.956;9.222;2022-11-20T15:44:12;4.40;1.00
4054;DHT22;2042;47.956;9.222;2022-11-20T15:46:40;4.40;1.00
4054;DHT22;2042;47.956;9.222;2022-11-20T15:49:12;4.30;1.00
4054;DHT22;2042;47.956;9.222;2022-11-20T15:51:42;4.20;1.00
4054;DHT22;2042;47.956;9.222;2022-11-20T15:54:22;4.20;1.00
4054;DHT22;2042;47.956;9.222;2022-11-20T15:56:48;4.10;1.00
4054;DHT22;2042;47.956;9.222;2022-11-20T15:59:15;4.10;1.00
4054;DHT22;2042;47.956;9.222;2022-11-20T16:01:41;4.00;1.00
4054;DHT22;2042;47.956;9.222;2022-11-20T16:04:14;4.00;1.00
4054;DHT22;2042;47.956;9.222;2022-11-20T16:06:40;4.00;1.00
4054;DHT22;2042;47.956;9.222;2022-11-20T16:09:07;4.00;1.00
4054;DHT22;2042;47.956;9.222;2022-11-20T16:11:33;3.90;1.00
4054;DHT22;2042;47.956;9.222;2022-11-20T16:14:02;3.90;1.00
4054;DHT22;2042;47.956;9.222;2022-11-20T16:16:46;3.80;1.00
4054;DHT22;2042;47.956;9.222;2022-11-20T16:19:13;3.80;1.00
4054;DHT22;2042;47.956;9.222;2022-11-20T16:21:40;3.80;1.00
4054;DHT22;2042;47.956;9.222;2022-11-20T16:24:11;3.70;1.00
4054;DHT22;2042;47.956;9.222;2022-11-20T16:26:39;3.70;1.00
4054;DHT22;2042;47.956;9.222;2022-11-20T16:29:06;3.60;1.00
4054;DHT22;2042;47.956;9.222;2022-11-20T16:31:32;3.60;1.00
4054;DHT22;2042;47.956;9.222;2022-11-20T16:34:00;3.50;1.00
4054;DHT22;2042;47.956;9.222;2022-11-20T16:36:27;3.50;1.00
4054;DHT22;2042;47.956;9.222;2022-11-20T16:38:59;3.50;1.00
4054;DHT22;2042;47.956;9.222;2022-11-20T16:41:26;3.50;1.00
4054;DHT22;2042;47.956;9.222;2022-11-20T16:43:57;3.50;1.00
4054;DHT22;2042;47.956;9.222;2022-11-20T16:46:28;3.40;1.00
4054;DHT22;2042;47.956;9.222;2022-11-20T16:49:00;3.40;1.00
4054;DHT22;2042;47.956;9.222;2022-11-20T16:51:27;3.40;1.00
4054;DHT22;2042;47.956;9.222;2022-11-20T16:53:54;3.50;1.00
4054;DHT22;2042;47.956;9.222;2022-11-20T16:56:24;3.50;1.00
4054;DHT22;2042;47.956;9.222;2022-11-20T16:58:52;3.50;1.00
4054;DHT22;2042;47.956;9.222;2022-11-20T17:01:19;3.40;1.00
4054;DHT22;2042;47.956;9.222;2022-11-20T17:03:52;3.40;1.00
4054;DHT22;2042;47.956;9.222;2022-11-20T17:06:19;3.40;1.00
4054;DHT22;2042;47.956;9.222;2022-11-20T17:08:46;3.50;1.00
4054;DHT22;2042;47.956;9.222;2022-11-20T17:11:14;3.50;1.00
4054;DHT22;2042;47.956;9.222;2022-11-20T17:13:41;3.60;1.00
4054;DHT22;2042;47.956;9.222;2022-11-20T17:16:12;3.60;1.00
4054;DHT22;2042;47.956;9.222;2022-11-20T17:18:38;3.60;1.00
4054;DHT22;2042;47.956;9.222;2022-11-20T17:21:05;3.60;1.00
4054;DHT22;2042;47.956;9.222;2022-11-20T17:23:33;3.60;1.00
4054;DHT22;2042;47.956;9.222;2022-11-20T17:28:28;3.60;1.00
4054;DHT22;2042;47.956;9.222;2022-11-20T17:30:58;3.60;1.00
4054;DHT22;2042;47.956;9.222;2022-11-20T17:33:24;3.60;1.00
4054;DHT22;2042;47.956;9.222;2022-11-20T17:35:50;3.50;1.00
4054;DHT22;2042;47.956;9.222;2022-11-20T17:38:16;3.50;1.00
4054;DHT22;2042;47.956;9.222;2022-11-20T17:40:41;3.50;1.00
4054;DHT22;2042;47.956;9.222;2022-11-20T17:43:07;3.50;1.00
4054;DHT22;2042;47.956;9.222;2022-11-20T17:45:35;3.60;1.00
4054;DHT22;2042;47.956;9.222;2022-11-20T17:48:01;3.60;1.00
4054;DHT22;2042;47.956;9.222;2022-11-20T17:50:26;3.60;1.00
4054;DHT22;2042;47.956;9.222;2022-11-20T17:52:52;3.60;1.00
4054;DHT22;2042;47.956;9.222;2022-11-20T17:55:18;3.60;1.00
4054;DHT22;2042;47.956;9.222;2022-11-20T17:57:43;3.60;1.00
4054;DHT22;2042;47.956;9.222;2022-11-20T18:00:21;3.60;1.00
4054;DHT22;2042;47.956;9.222;2022-11-20T18:02:48;3.60;1.00
4054;DHT22;2042;47.956;9.222;2022-11-20T18:05:14;3.60;1.00
4054;DHT22;2042;47.956;9.222;2022-11-20T18:07:40;3.50;1.00
4054;DHT22;2042;47.956;9.222;2022-11-20T18:10:06;3.50;1.00
4054;DHT22;2042;47.956;9.222;2022-11-20T18:12:32;3.50;1.00
4054;DHT22;2042;47.956;9.222;2022-11-20T18:14:58;3.60;1.00
4054;DHT22;2042;47.956;9.222;2022-11-20T18:17:24;3.60;1.00
4054;DHT22;2042;47.956;9.222;2022-11-20T18:19:49;3.60;1.00
4054;DHT22;2042;47.956;9.222;2022-11-20T18:22:17;3.60;1.00
4054;DHT22;2042;47.956;9.222;2022-11-20T18:24:43;3.60;1.00
4054;DHT22;2042;47.956;9.222;2022-11-20T18:27:19;3.70;1.00
4054;DHT22;2042;47.956;9.222;2022-11-20T18:29:46;3.70;1.20
4054;DHT22;2042;47.956;9.222;2022-11-20T18:32:13;3.80;1.50